Skip Navigation LinksHome page > Weather > Current weather Skip Navigation Links

Current Weather

San Francisco International, San Francisco

For information only: do not use for flight planning or navigation.
Latest weather
Observation time Sunday, February 1, 2015 4:56 PM PST
Local time Sunday, February 1, 2015 5:43 PM PST
Flight conditions Visual Meteorological Conditions
Winds
Wind direction North (10°)
Wind speed 3 mph
Visibility 10 mi.
Sky condition
Ceiling 20,000 ft. overcast
Cloud layer overcast 20,000 ft.
Temperature 60°F
Dewpoint 51°F
Altimeter 30.11 in.Hg
Derived measurements
Relative humidity 72%
Density altitude 49 ft.
Sea-level pressure 30.11 in.Hg
Remarks
Automated weather observing station with precipitation discriminator.
Breaks in overcast.
METAR KSFO 020056Z 01003KT 10SM OVC200 16/11 A3011 RMK AO2 SLP196 BINOVC T01560106

Settings

Location code

InnerDrive.Weather 4.0.5505.0 Release CLR 4.0.30319.34014
Copyright ©2015 Inner Drive Technology. All rights reserved. Portions Copyright ©1986-2015 David Braverman.

Find weather

Site navigation


Skip Navigation Links

Place info

Page info

PayPal - The safer, easier way to pay online!

Return home.

Copyright ©2015 Inner Drive Technology. Purveyors of fine, hand-crafted computer software. Page printed 2015-02-02T01:43:05 UTC.